Carrollton, Indiana
Current Conditions -  °F | °C
As of 11:53 PM on Friday 28 Nov 2014 (Local Time) from KGEZ Reporting Station
Clear Clear  
Wind Chill: 27°   Ceiling: Unl
Heat Index: 34°   Visibility: 10mi
Dew Point: 23°   Wind: 9mph
Humidity: 64%   Direction: 150°SSE
Pressure: 30.03"   Gusts: NA
Location:  39.71°N, 85.8206°W
Report Text: KGEZ 290453Z AUTO 15008KT 10SM CLR 01/M05 A3003 RMK AO2 SLP178 T00111050 400111050
Loading
Personal Weather Stations






























Interactive Weather Map New forecast layout! Learn more

10-Day Weather Forecast

Advertisements
Track Severe Weather on mobile